Terminal Aerodrome Forecast
Issued by NWS Albany, NY

Home | Current Version | Previous Version | Text Only | Print | Product List | Glossary On
Versions: 1 2 3 4 5 6 7 8 9 10 11 12 13 14 15 16 17 18
000
FTUS41 KALY 012300
TAFPOU
TAF
KPOU 012339Z 0200/0224 00000KT P6SM OVC100
     FM020200 00000KT 5SM -SN BR OVC040
      TEMPO 0202/0204 2SM -SN BR OVC020
     FM020400 04005KT 1 1/2SM -SN BR BKN008 OVC015
     FM020600 02006KT 1/2SM SN FZFG VV004
     FM021500 01006KT 1SM -SN OVC008
     FM022100 32007KT 5SM -SHSN OVC010=

USA.gov is the U.S. government's official web portal to all federal, state and local government web resources and services.